PWSweather.com
Personal Weather Stations
Station Observations
DW1039
Liberty & Fairfield Townships, Hamilton, OH 45011

Liberty & Fairfield TownshipsHamilton, OH 45011

Lat: 39.3933, Lon: -84.477

Elevation: 780

Station Type: Davis Vantage Pro2 (Daytime Fan Aspirated)

http://www.lfweathercenter.com/

Latest ConditionsUpdated 4:20:12 PM EDT Wednesday, Aug 20, 2014
Currently Today's Max Today's Min Today's Average
Temperature 84.7°F29.3°C 86.6°F30.3°C 65.5°F18.6°C 73.7°F23.2°C
Dew Point 70.3°F21.3°C 72.9°F22.7°C 61.2°F16.2°C 66.2°F19.0°C
Winds 2.0 mph WNW3.2 kmh WNW 9.0 mph WSW14.5 kmh WSW - 1.9 mph 3.1 kmh
Wind Gusts 19.0 mph30.6 kmh 29.0 mph46.7 kmh - -
Humidity 62% 87% 56% 78%
Pressure 29.94 in1013.9 mb 29.95 in1014.2 mb 29.80 in1009.1 mb -
Hour Temp Dew Point Humidity Winds Wind Gusts Pressure Precip Precip Rate Daily Precip Total
04:20 PM 84.7°F29.3°C 70.3°F21.3°C 62% 2.0 mph WNW3.2 kmh WNW 19.0 mph30.6 kmh 29.94 in1013.9 mb 0.00 in0.0 mm 0.00 in/hr0.0 mm/hr 0.60 in15.2 mm
04:10 PM 85.0°F29.4°C 69.6°F20.9°C 60% 2.0 mph WSW3.2 kmh WSW 12.0 mph19.3 kmh 29.94 in1013.9 mb 0.00 in0.0 mm 0.00 in/hr0.0 mm/hr 0.60 in15.2 mm
04:00 PM 85.2°F29.6°C 70.2°F21.2°C 61% 6.0 mph W9.7 kmh W 14.0 mph22.5 kmh 29.94 in1013.9 mb 0.00 in0.0 mm 0.00 in/hr0.0 mm/hr 0.60 in15.2 mm
03:50 PM 85.4°F29.7°C 69.5°F20.8°C 59% Calm Calm 15.0 mph24.1 kmh 29.95 in1014.2 mb 0.00 in0.0 mm 0.00 in/hr0.0 mm/hr 0.60 in15.2 mm
03:40 PM 86.5°F30.3°C 69.5°F20.8°C 57% 2.0 mph WSW3.2 kmh WSW 14.0 mph22.5 kmh 29.95 in1014.2 mb 0.00 in0.0 mm 0.00 in/hr0.0 mm/hr 0.60 in15.2 mm
03:30 PM 86.3°F30.2°C 69.8°F21.0°C 58% 7.0 mph WSW11.3 kmh WSW 13.0 mph20.9 kmh 29.94 in1013.9 mb 0.00 in0.0 mm 0.00 in/hr0.0 mm/hr 0.60 in15.2 mm
03:20 PM 86.0°F30.0°C 68.5°F20.3°C 56% 7.0 mph WSW11.3 kmh WSW 15.0 mph24.1 kmh 29.94 in1013.9 mb 0.00 in0.0 mm 0.00 in/hr0.0 mm/hr 0.60 in15.2 mm
03:10 PM 86.1°F30.1°C 70.1°F21.2°C 59% 4.0 mph WSW6.4 kmh WSW 12.0 mph19.3 kmh 29.94 in1013.9 mb 0.00 in0.0 mm 0.00 in/hr0.0 mm/hr 0.60 in15.2 mm
03:00 PM 86.0°F30.0°C 71.0°F21.7°C 61% 1.0 mph W1.6 kmh W 12.0 mph19.3 kmh 29.94 in1013.9 mb 0.00 in0.0 mm 0.00 in/hr0.0 mm/hr 0.60 in15.2 mm
02:50 PM 86.6°F30.3°C 70.1°F21.2°C 58% 6.0 mph WNW9.7 kmh WNW 12.0 mph19.3 kmh 29.94 in1013.9 mb 0.00 in0.0 mm 0.00 in/hr0.0 mm/hr 0.60 in15.2 mm
02:40 PM 86.5°F30.3°C 70.0°F21.1°C 58% 2.0 mph NW3.2 kmh NW 14.0 mph22.5 kmh 29.94 in1013.9 mb 0.00 in0.0 mm 0.00 in/hr0.0 mm/hr 0.60 in15.2 mm
02:30 PM 86.1°F30.1°C 70.6°F21.4°C 60% 4.0 mph WSW6.4 kmh WSW 7.0 mph11.3 kmh 29.94 in1013.9 mb 0.00 in0.0 mm 0.00 in/hr0.0 mm/hr 0.60 in15.2 mm
02:20 PM 85.8°F29.9°C 68.8°F20.4°C 57% 1.0 mph W1.6 kmh W 11.0 mph17.7 kmh 29.94 in1013.9 mb 0.00 in0.0 mm 0.00 in/hr0.0 mm/hr 0.60 in15.2 mm
02:10 PM 85.9°F29.9°C 71.4°F21.9°C 62% Calm Calm 10.0 mph16.1 kmh 29.93 in1013.5 mb 0.00 in0.0 mm 0.00 in/hr0.0 mm/hr 0.60 in15.2 mm
02:00 PM 85.5°F29.7°C 71.0°F21.7°C 62% 7.0 mph WSW11.3 kmh WSW 11.0 mph17.7 kmh 29.93 in1013.5 mb 0.00 in0.0 mm 0.00 in/hr0.0 mm/hr 0.60 in15.2 mm
01:50 PM 85.4°F29.7°C 71.4°F21.9°C 63% 3.0 mph SW4.8 kmh SW 10.0 mph16.1 kmh 29.93 in1013.5 mb 0.00 in0.0 mm 0.00 in/hr0.0 mm/hr 0.60 in15.2 mm
01:40 PM 84.4°F29.1°C 71.8°F22.1°C 66% 6.0 mph SW9.7 kmh SW 13.0 mph20.9 kmh 29.94 in1013.9 mb 0.00 in0.0 mm 0.00 in/hr0.0 mm/hr 0.60 in15.2 mm
01:30 PM 83.9°F28.8°C 71.8°F22.1°C 67% 4.0 mph SSW6.4 kmh SSW 10.0 mph16.1 kmh 29.94 in1013.9 mb 0.00 in0.0 mm 0.00 in/hr0.0 mm/hr 0.60 in15.2 mm
01:20 PM 83.7°F28.7°C 70.7°F21.5°C 65% Calm Calm 3.0 mph4.8 kmh 29.94 in1013.9 mb 0.00 in0.0 mm 0.00 in/hr0.0 mm/hr 0.60 in15.2 mm
01:10 PM 84.4°F29.1°C 72.3°F22.4°C 67% Calm Calm 11.0 mph17.7 kmh 29.94 in1013.9 mb 0.00 in0.0 mm 0.00 in/hr0.0 mm/hr 0.60 in15.2 mm
01:00 PM 83.6°F28.7°C 72.8°F22.7°C 70% 4.0 mph WSW6.4 kmh WSW 9.0 mph14.5 kmh 29.93 in1013.5 mb 0.00 in0.0 mm 0.00 in/hr0.0 mm/hr 0.60 in15.2 mm
12:50 PM 83.3°F28.5°C 72.1°F22.3°C 69% 3.0 mph SSW4.8 kmh SSW 6.0 mph9.7 kmh 29.93 in1013.5 mb 0.00 in0.0 mm 0.00 in/hr0.0 mm/hr 0.60 in15.2 mm
12:40 PM 82.5°F28.1°C 72.6°F22.6°C 72% Calm Calm 7.0 mph11.3 kmh 29.93 in1013.5 mb 0.00 in0.0 mm 0.00 in/hr0.0 mm/hr 0.60 in15.2 mm
12:30 PM 82.1°F27.8°C 72.6°F22.6°C 73% 5.0 mph S8.0 kmh S 9.0 mph14.5 kmh 29.93 in1013.5 mb 0.00 in0.0 mm 0.00 in/hr0.0 mm/hr 0.60 in15.2 mm
12:20 PM 81.6°F27.6°C 72.5°F22.5°C 74% 3.0 mph WSW4.8 kmh WSW 6.0 mph9.7 kmh 29.93 in1013.5 mb 0.00 in0.0 mm 0.00 in/hr0.0 mm/hr 0.60 in15.2 mm
12:10 PM 81.2°F27.3°C 72.9°F22.7°C 76% 2.0 mph W3.2 kmh W 10.0 mph16.1 kmh 29.93 in1013.5 mb 0.00 in0.0 mm 0.00 in/hr0.0 mm/hr 0.60 in15.2 mm
12:00 PM 80.5°F26.9°C 71.9°F22.2°C 75% 5.0 mph SSW8.0 kmh SSW 11.0 mph17.7 kmh 29.93 in1013.5 mb 0.00 in0.0 mm 0.00 in/hr0.0 mm/hr 0.60 in15.2 mm
11:50 AM 79.6°F26.4°C 71.4°F21.9°C 76% 1.0 mph SSW1.6 kmh SSW 10.0 mph16.1 kmh 29.93 in1013.5 mb 0.00 in0.0 mm 0.00 in/hr0.0 mm/hr 0.60 in15.2 mm
11:40 AM 79.4°F26.3°C 71.6°F22.0°C 77% Calm Calm 9.0 mph14.5 kmh 29.93 in1013.5 mb 0.00 in0.0 mm 0.00 in/hr0.0 mm/hr 0.60 in15.2 mm
11:30 AM 79.0°F26.1°C 71.6°F22.0°C 78% 4.0 mph W6.4 kmh W 9.0 mph14.5 kmh 29.93 in1013.5 mb 0.00 in0.0 mm 0.00 in/hr0.0 mm/hr 0.60 in15.2 mm
11:20 AM 78.0°F25.6°C 71.0°F21.7°C 79% 2.0 mph WSW3.2 kmh WSW 10.0 mph16.1 kmh 29.93 in1013.5 mb 0.00 in0.0 mm 0.00 in/hr0.0 mm/hr 0.60 in15.2 mm
11:10 AM 77.6°F25.3°C 71.0°F21.7°C 80% 3.0 mph SW4.8 kmh SW 7.0 mph11.3 kmh 29.93 in1013.5 mb 0.00 in0.0 mm 0.00 in/hr0.0 mm/hr 0.60 in15.2 mm
11:00 AM 76.6°F24.8°C 70.0°F21.1°C 80% 4.0 mph S6.4 kmh S 7.0 mph11.3 kmh 29.93 in1013.5 mb 0.00 in0.0 mm 0.00 in/hr0.0 mm/hr 0.60 in15.2 mm
10:50 AM 76.2°F24.6°C 70.0°F21.1°C 81% 2.0 mph SW3.2 kmh SW 6.0 mph9.7 kmh 29.92 in1013.2 mb 0.00 in0.0 mm 0.00 in/hr0.0 mm/hr 0.60 in15.2 mm
10:40 AM 76.1°F24.5°C 69.9°F21.1°C 81% 2.0 mph SW3.2 kmh SW 6.0 mph9.7 kmh 29.92 in1013.2 mb 0.00 in0.0 mm 0.00 in/hr0.0 mm/hr 0.60 in15.2 mm
10:30 AM 75.4°F24.1°C 69.5°F20.8°C 82% 5.0 mph SW8.0 kmh SW 9.0 mph14.5 kmh 29.92 in1013.2 mb 0.00 in0.0 mm 0.00 in/hr0.0 mm/hr 0.60 in15.2 mm
10:20 AM 74.5°F23.6°C 68.7°F20.4°C 82% 3.0 mph SW4.8 kmh SW 10.0 mph16.1 kmh 29.92 in1013.2 mb 0.00 in0.0 mm 0.00 in/hr0.0 mm/hr 0.60 in15.2 mm
10:10 AM 73.6°F23.1°C 68.5°F20.3°C 84% 7.0 mph SSW11.3 kmh SSW 7.0 mph11.3 kmh 29.91 in1012.9 mb 0.00 in0.0 mm 0.00 in/hr0.0 mm/hr 0.60 in15.2 mm
10:00 AM 72.4°F22.4°C 67.6°F19.8°C 85% Calm Calm 6.0 mph9.7 kmh 29.91 in1012.9 mb 0.00 in0.0 mm 0.00 in/hr0.0 mm/hr 0.60 in15.2 mm
09:50 AM 71.4°F21.9°C 66.7°F19.3°C 85% 3.0 mph SW4.8 kmh SW 5.0 mph8.0 kmh 29.91 in1012.9 mb 0.00 in0.0 mm 0.00 in/hr0.0 mm/hr 0.60 in15.2 mm
09:40 AM 70.5°F21.4°C 66.1°F18.9°C 86% 1.0 mph SSW1.6 kmh SSW 7.0 mph11.3 kmh 29.91 in1012.9 mb 0.00 in0.0 mm 0.00 in/hr0.0 mm/hr 0.60 in15.2 mm
09:30 AM 69.7°F20.9°C 65.3°F18.5°C 86% Calm Calm 5.0 mph8.0 kmh 29.91 in1012.9 mb 0.00 in0.0 mm 0.00 in/hr0.0 mm/hr 0.60 in15.2 mm
09:20 AM 68.8°F20.4°C 64.8°F18.2°C 87% Calm Calm 6.0 mph9.7 kmh 29.91 in1012.9 mb 0.00 in0.0 mm 0.00 in/hr0.0 mm/hr 0.60 in15.2 mm
09:10 AM 68.3°F20.2°C 64.3°F17.9°C 87% Calm Calm 4.0 mph6.4 kmh 29.91 in1012.9 mb 0.00 in0.0 mm 0.00 in/hr0.0 mm/hr 0.60 in15.2 mm
09:00 AM 67.7°F19.8°C 63.7°F17.6°C 87% Calm Calm 6.0 mph9.7 kmh 29.91 in1012.9 mb 0.00 in0.0 mm 0.00 in/hr0.0 mm/hr 0.60 in15.2 mm
08:50 AM 67.3°F19.6°C 63.3°F17.4°C 87% 4.0 mph SW6.4 kmh SW 6.0 mph9.7 kmh 29.90 in1012.5 mb 0.00 in0.0 mm 0.00 in/hr0.0 mm/hr 0.60 in15.2 mm
08:40 AM 67.0°F19.4°C 63.0°F17.2°C 87% Calm Calm 1.0 mph1.6 kmh 29.90 in1012.5 mb 0.00 in0.0 mm 0.00 in/hr0.0 mm/hr 0.60 in15.2 mm
08:30 AM 66.8°F19.3°C 62.8°F17.1°C 87% 1.0 mph SSW1.6 kmh SSW 3.0 mph4.8 kmh 29.90 in1012.5 mb 0.00 in0.0 mm 0.00 in/hr0.0 mm/hr 0.60 in15.2 mm
08:20 AM 66.5°F19.2°C 62.5°F16.9°C 87% Calm Calm 5.0 mph8.0 kmh 29.89 in1012.2 mb 0.00 in0.0 mm 0.00 in/hr0.0 mm/hr 0.60 in15.2 mm
08:10 AM 66.1°F18.9°C 62.1°F16.7°C 87% 3.0 mph S4.8 kmh S 3.0 mph4.8 kmh 29.89 in1012.2 mb 0.00 in0.0 mm 0.00 in/hr0.0 mm/hr 0.60 in15.2 mm
08:00 AM 66.0°F18.9°C 62.0°F16.7°C 87% 2.0 mph S3.2 kmh S 4.0 mph6.4 kmh 29.89 in1012.2 mb 0.00 in0.0 mm 0.00 in/hr0.0 mm/hr 0.60 in15.2 mm
07:50 AM 65.8°F18.8°C 61.8°F16.6°C 87% Calm Calm -- 29.89 in1012.2 mb 0.00 in0.0 mm 0.00 in/hr0.0 mm/hr 0.60 in15.2 mm
07:40 AM 65.7°F18.7°C 61.7°F16.5°C 87% Calm Calm 1.0 mph1.6 kmh 29.88 in1011.9 mb 0.00 in0.0 mm 0.00 in/hr0.0 mm/hr 0.60 in15.2 mm
07:30 AM 65.6°F18.7°C 61.6°F16.4°C 87% Calm Calm -- 29.88 in1011.9 mb 0.00 in0.0 mm 0.00 in/hr0.0 mm/hr 0.60 in15.2 mm
07:20 AM 65.5°F18.6°C 61.5°F16.4°C 87% Calm Calm -- 29.88 in1011.9 mb 0.00 in0.0 mm 0.00 in/hr0.0 mm/hr 0.60 in15.2 mm
07:00 AM 65.6°F18.7°C 61.6°F16.4°C 87% Calm Calm -- 29.88 in1011.9 mb 0.00 in0.0 mm 0.00 in/hr0.0 mm/hr 0.60 in15.2 mm
06:50 AM 65.6°F18.7°C 61.6°F16.4°C 87% Calm Calm 1.0 mph1.6 kmh 29.88 in1011.9 mb 0.00 in0.0 mm 0.00 in/hr0.0 mm/hr 0.60 in15.2 mm
06:40 AM 65.7°F18.7°C 61.7°F16.5°C 87% Calm Calm -- 29.87 in1011.5 mb 0.00 in0.0 mm 0.00 in/hr0.0 mm/hr 0.60 in15.2 mm
06:30 AM 65.8°F18.8°C 61.8°F16.6°C 87% Calm Calm -- 29.87 in1011.5 mb 0.00 in0.0 mm 0.00 in/hr0.0 mm/hr 0.60 in15.2 mm
06:20 AM 65.8°F18.8°C 61.8°F16.6°C 87% Calm Calm -- 29.86 in1011.2 mb 0.00 in0.0 mm 0.00 in/hr0.0 mm/hr 0.60 in15.2 mm
06:10 AM 65.9°F18.8°C 61.9°F16.6°C 87% Calm Calm 1.0 mph1.6 kmh 29.86 in1011.2 mb 0.00 in0.0 mm 0.00 in/hr0.0 mm/hr 0.60 in15.2 mm
06:00 AM 65.9°F18.8°C 61.9°F16.6°C 87% Calm Calm -- 29.86 in1011.2 mb 0.00 in0.0 mm 0.00 in/hr0.0 mm/hr 0.60 in15.2 mm
05:50 AM 65.8°F18.8°C 61.8°F16.6°C 87% Calm Calm -- 29.86 in1011.2 mb 0.00 in0.0 mm 0.00 in/hr0.0 mm/hr 0.60 in15.2 mm
05:40 AM 65.8°F18.8°C 61.8°F16.6°C 87% Calm Calm -- 29.85 in1010.8 mb 0.00 in0.0 mm 0.00 in/hr0.0 mm/hr 0.60 in15.2 mm
05:30 AM 65.9°F18.8°C 61.6°F16.4°C 86% Calm Calm -- 29.85 in1010.8 mb 0.00 in0.0 mm 0.00 in/hr0.0 mm/hr 0.60 in15.2 mm
05:20 AM 66.1°F18.9°C 61.8°F16.6°C 86% Calm Calm -- 29.84 in1010.5 mb 0.00 in0.0 mm 0.00 in/hr0.0 mm/hr 0.60 in15.2 mm
05:10 AM 66.1°F18.9°C 61.8°F16.6°C 86% Calm Calm -- 29.84 in1010.5 mb 0.00 in0.0 mm 0.00 in/hr0.0 mm/hr 0.60 in15.2 mm
05:00 AM 66.1°F18.9°C 61.8°F16.6°C 86% Calm Calm -- 29.84 in1010.5 mb 0.00 in0.0 mm 0.00 in/hr0.0 mm/hr 0.60 in15.2 mm
04:50 AM 66.0°F18.9°C 61.7°F16.5°C 86% Calm Calm 3.0 mph4.8 kmh 29.84 in1010.5 mb 0.00 in0.0 mm 0.00 in/hr0.0 mm/hr 0.60 in15.2 mm
04:40 AM 65.9°F18.8°C 61.6°F16.4°C 86% Calm Calm 3.0 mph4.8 kmh 29.84 in1010.5 mb 0.00 in0.0 mm 0.00 in/hr0.0 mm/hr 0.60 in15.2 mm
04:30 AM 65.8°F18.8°C 61.5°F16.4°C 86% Calm Calm 3.0 mph4.8 kmh 29.84 in1010.5 mb 0.00 in0.0 mm 0.00 in/hr0.0 mm/hr 0.60 in15.2 mm
04:20 AM 65.8°F18.8°C 61.5°F16.4°C 86% 7.0 mph S11.3 kmh S 7.0 mph11.3 kmh 29.84 in1010.5 mb 0.00 in0.0 mm 0.00 in/hr0.0 mm/hr 0.60 in15.2 mm
04:10 AM 65.9°F18.8°C 61.6°F16.4°C 86% 5.0 mph S8.0 kmh S 6.0 mph9.7 kmh 29.84 in1010.5 mb 0.00 in0.0 mm 0.00 in/hr0.0 mm/hr 0.60 in15.2 mm
04:00 AM 65.9°F18.8°C 61.6°F16.4°C 86% 3.0 mph S4.8 kmh S 6.0 mph9.7 kmh 29.84 in1010.5 mb 0.00 in0.0 mm 0.00 in/hr0.0 mm/hr 0.60 in15.2 mm
03:50 AM 65.8°F18.8°C 61.5°F16.4°C 86% 6.0 mph SSE9.7 kmh SSE 6.0 mph9.7 kmh 29.84 in1010.5 mb 0.00 in0.0 mm 0.00 in/hr0.0 mm/hr 0.60 in15.2 mm
03:40 AM 65.8°F18.8°C 61.5°F16.4°C 86% 1.0 mph SE1.6 kmh SE 6.0 mph9.7 kmh 29.83 in1010.2 mb 0.00 in0.0 mm 0.00 in/hr0.0 mm/hr 0.60 in15.2 mm
03:30 AM 65.6°F18.7°C 61.3°F16.3°C 86% Calm Calm 4.0 mph6.4 kmh 29.82 in1009.8 mb 0.01 in0.3 mm 0.00 in/hr0.0 mm/hr 0.60 in15.2 mm
03:20 AM 65.6°F18.7°C 61.3°F16.3°C 86% Calm Calm 5.0 mph8.0 kmh 29.83 in1010.2 mb 0.01 in0.3 mm 0.00 in/hr0.0 mm/hr 0.60 in15.2 mm
03:10 AM 65.7°F18.7°C 61.4°F16.3°C 86% Calm Calm 6.0 mph9.7 kmh 29.84 in1010.5 mb 0.02 in0.5 mm 0.00 in/hr0.0 mm/hr 0.60 in15.2 mm
03:00 AM 65.6°F18.7°C 61.3°F16.3°C 86% 4.0 mph SW6.4 kmh SW 7.0 mph11.3 kmh 29.82 in1009.8 mb 0.03 in0.8 mm 0.00 in/hr0.0 mm/hr 0.60 in15.2 mm
02:50 AM 65.6°F18.7°C 61.3°F16.3°C 86% Calm Calm 5.0 mph8.0 kmh 29.81 in1009.5 mb 0.06 in1.5 mm 0.00 in/hr0.0 mm/hr 0.60 in15.2 mm
02:40 AM 65.6°F18.7°C 61.3°F16.3°C 86% Calm Calm 2.0 mph3.2 kmh 29.80 in1009.1 mb 0.19 in4.8 mm 0.00 in/hr0.0 mm/hr 0.60 in15.2 mm
02:30 AM 65.8°F18.8°C 61.2°F16.2°C 85% Calm Calm 2.0 mph3.2 kmh 29.82 in1009.8 mb 0.53 in13.5 mm 0.00 in/hr0.0 mm/hr 0.60 in15.2 mm
02:20 AM 65.9°F18.8°C 61.3°F16.3°C 85% Calm Calm 4.0 mph6.4 kmh 29.83 in1010.2 mb 0.60 in15.2 mm 0.06 in/hr1.5 mm/hr 0.60 in15.2 mm
02:10 AM 66.1°F18.9°C 61.5°F16.4°C 85% 1.0 mph WSW1.6 kmh WSW 5.0 mph8.0 kmh 29.84 in1010.5 mb 0.59 in15.0 mm 0.06 in/hr1.5 mm/hr 0.59 in15.0 mm
02:00 AM 66.2°F19.0°C 61.6°F16.4°C 85% 2.0 mph WSW3.2 kmh WSW 13.0 mph20.9 kmh 29.86 in1011.2 mb 0.58 in14.7 mm 0.02 in/hr0.5 mm/hr 0.58 in14.7 mm
01:50 AM 66.3°F19.1°C 61.7°F16.5°C 85% 6.0 mph WSW9.7 kmh WSW 11.0 mph17.7 kmh 29.85 in1010.8 mb 0.56 in14.2 mm 0.84 in/hr21.3 mm/hr 0.56 in14.2 mm
01:40 AM 66.6°F19.2°C 61.6°F16.4°C 84% 6.0 mph W9.7 kmh W 18.0 mph29.0 kmh 29.85 in1010.8 mb 0.42 in10.7 mm 1.92 in/hr48.8 mm/hr 0.42 in10.7 mm
01:30 AM 71.5°F21.9°C 63.9°F17.7°C 77% 9.0 mph WSW14.5 kmh WSW 29.0 mph46.7 kmh 29.87 in1011.5 mb 0.10 in2.5 mm 0.60 in/hr15.2 mm/hr 0.10 in2.5 mm
01:20 AM 75.8°F24.3°C 69.2°F20.7°C 80% Calm Calm 3.0 mph4.8 kmh 29.83 in1010.2 mb 0.00 in0.0 mm 0.00 in/hr0.0 mm/hr 0.00 in0.0 mm
01:10 AM 75.7°F24.3°C 68.7°F20.4°C 79% Calm Calm -- 29.81 in1009.5 mb 0.00 in0.0 mm 0.00 in/hr0.0 mm/hr 0.00 in0.0 mm
01:00 AM 76.0°F24.4°C 68.7°F20.4°C 78% Calm Calm -- 29.81 in1009.5 mb 0.00 in0.0 mm 0.00 in/hr0.0 mm/hr 0.00 in0.0 mm
12:50 AM 76.7°F24.8°C 69.3°F20.7°C 78% Calm Calm -- 29.82 in1009.8 mb 0.00 in0.0 mm 0.00 in/hr0.0 mm/hr 0.00 in0.0 mm
12:40 AM 77.3°F25.2°C 69.2°F20.7°C 76% Calm Calm -- 29.82 in1009.8 mb 0.00 in0.0 mm 0.00 in/hr0.0 mm/hr 0.00 in0.0 mm
12:30 AM 77.9°F25.5°C 69.7°F20.9°C 76% Calm Calm -- 29.82 in1009.8 mb 0.00 in0.0 mm 0.00 in/hr0.0 mm/hr 0.00 in0.0 mm
12:20 AM 78.2°F25.7°C 69.6°F20.9°C 75% Calm Calm 3.0 mph4.8 kmh 29.82 in1009.8 mb 0.00 in0.0 mm 0.00 in/hr0.0 mm/hr 0.00 in0.0 mm
12:10 AM 78.2°F25.7°C 69.6°F20.9°C 75% Calm Calm -- 29.82 in1009.8 mb 0.00 in0.0 mm 0.00 in/hr0.0 mm/hr 0.00 in0.0 mm
12:00 AM 78.3°F25.7°C 69.7°F20.9°C 75% Calm Calm 2.0 mph3.2 kmh 29.82 in1009.8 mb 0.00 in0.0 mm 0.00 in/hr0.0 mm/hr 0.00 in0.0 mm